Авиационная погода в аэропорту Сокол

СКИДКИ НА СМАРТФОНЫ!

Регион: 
Погода METAR: 
UHMM 190100Z 11009MPS 9999 BKN020CB 14/10 Q1006 R10/70D NOSIG RMK MT OBSC QFE739 R28/12006MPS
Время наблюдения
2022-08-19T01:00:00Z
Температура C
14.0
Точка росы
10.0
Направление ветра
110
Скорость ветра (узлы)
17
Метео видимость
6.21
Облачность
BKN
Нижняя граница облачности (футы)
2000
Явления погоды
Условия полета
MVFR
Аэропорт подробнее: 
BKN – значительная (рассеянная, разорванная) облачность;

Скидки на навигаторы!